Time;durP1;ratioP1;P1;durP2;ratioP2;P2;SDS_P1;SDS_P2;PMS_P1;PMS_P2;Temp;Humidity;BMP_temperature;BMP_pressure;BME280_temperature;BME280_humidity;BME280_pressure;Samples;Min_cycle;Max_cycle;Signal;HPM_P1;HPM_P2
2023/12/05 00:01:04;;;;;;;57.72;23.73;;;;;;;3.18;56.67;100751.69;5086376;27;97512;-77
2023/12/05 00:03:31;;;;;;;52.92;23.33;;;;;;;3.20;55.59;100755.16;5085670;27;99868;-77
2023/12/05 00:05:57;;;;;;;55.72;24.52;;;;;;;3.38;55.73;100748.97;5078063;27;98941;-78
2023/12/05 00:08:24;;;;;;;53.28;23.58;;;;;;;3.05;56.38;100750.88;5081815;27;96880;-78
2023/12/05 00:10:50;;;;;;;58.92;24.40;;;;;;;3.17;56.11;100745.59;5083559;27;96786;-78
2023/12/05 00:13:16;;;;;;;53.08;22.38;;;;;;;3.14;56.37;100742.16;5085451;27;98986;-78
2023/12/05 00:15:43;;;;;;;58.05;24.58;;;;;;;3.47;55.50;100728.00;5077451;27;98742;-78
2023/12/05 00:18:11;;;;;;;53.15;23.83;;;;;;;3.35;55.68;100731.53;5085170;27;96738;-77
2023/12/05 00:20:37;;;;;;;57.47;23.65;;;;;;;3.09;55.87;100733.44;5079703;27;96932;-78
2023/12/05 00:23:04;;;;;;;54.00;22.45;;;;;;;3.04;56.36;100740.44;5075918;27;99300;-78
2023/12/05 00:25:30;;;;;;;51.75;22.65;;;;;;;3.15;56.41;100736.88;5083792;27;99160;-76
2023/12/05 00:27:57;;;;;;;57.60;23.17;;;;;;;2.67;57.20;100740.59;5086390;27;98415;-78
2023/12/05 00:30:24;;;;;;;54.33;24.48;;;;;;;3.08;56.40;100734.34;5088075;27;96955;-77
2023/12/05 00:32:50;;;;;;;50.65;22.75;;;;;;;3.17;55.62;100739.50;5091252;27;99293;-78
2023/12/05 00:35:19;;;;;;;51.75;22.50;;;;;;;3.07;56.40;100732.59;5086715;27;101297;-79
2023/12/05 00:37:46;;;;;;;57.22;25.00;;;;;;;2.95;56.51;100737.88;5081263;27;97330;-79
2023/12/05 00:40:13;;;;;;;61.38;24.50;;;;;;;3.29;55.82;100731.59;5081014;27;96868;-80
2023/12/05 00:42:40;;;;;;;55.53;23.63;;;;;;;3.14;56.15;100739.53;5089309;27;99339;-80
2023/12/05 00:45:07;;;;;;;54.92;23.27;;;;;;;3.40;55.15;100732.41;5096266;27;101694;-79
2023/12/05 00:47:33;;;;;;;54.25;23.70;;;;;;;3.19;56.05;100741.25;5087502;27;96869;-80
2023/12/05 00:49:59;;;;;;;53.15;22.85;;;;;;;3.31;55.78;100732.47;5089643;27;96867;-79
2023/12/05 00:52:27;;;;;;;48.42;23.77;;;;;;;3.03;56.52;100736.09;5086135;27;99043;-80
2023/12/05 00:54:54;;;;;;;50.15;22.80;;;;;;;2.91;57.04;100736.16;5086821;27;101038;-79
2023/12/05 00:57:20;;;;;;;47.08;22.33;;;;;;;2.98;56.87;100733.50;5092755;27;97099;-81
2023/12/05 00:59:46;;;;;;;52.85;23.35;;;;;;;3.04;56.53;100736.09;5084552;27;97638;-78
2023/12/05 01:02:13;;;;;;;50.70;22.77;;;;;;;3.16;56.30;100737.75;5086309;27;99819;-78
2023/12/05 01:04:39;;;;;;;52.33;23.02;;;;;;;3.03;56.24;100736.97;5091736;27;98376;-78
2023/12/05 01:07:06;;;;;;;52.38;22.67;;;;;;;2.99;56.89;100731.78;5083530;27;96912;-78
2023/12/05 01:09:33;;;;;;;58.60;23.88;;;;;;;2.86;56.77;100733.56;5082649;27;98605;-77
2023/12/05 01:12:00;;;;;;;47.70;21.25;;;;;;;2.79;57.17;100735.34;5087976;27;99742;-78
2023/12/05 01:14:26;;;;;;;53.63;23.45;;;;;;;2.86;56.90;100730.09;5083516;27;98215;-78
2023/12/05 01:16:53;;;;;;;51.90;22.17;;;;;;;2.86;57.38;100727.47;5086619;27;96772;-78
2023/12/05 01:19:19;;;;;;;47.75;22.13;;;;;;;3.20;56.14;100723.84;5082646;27;97908;-77
2023/12/05 01:21:46;;;;;;;52.25;23.67;;;;;;;3.03;56.76;100721.28;5094035;27;102831;-77
2023/12/05 01:24:12;;;;;;;53.08;23.15;;;;;;;3.49;55.16;100727.09;5086945;27;100085;-76
2023/12/05 01:26:40;;;;;;;53.80;23.98;;;;;;;3.06;55.88;100730.88;5078346;27;96743;-77
2023/12/05 01:29:06;;;;;;;55.70;24.70;;;;;;;3.44;55.12;100718.44;5086359;27;96700;-77
2023/12/05 01:31:32;;;;;;;54.22;24.33;;;;;;;3.40;55.04;100716.75;5082653;27;97642;-77
2023/12/05 01:33:59;;;;;;;52.30;22.52;;;;;;;3.33;55.66;100717.66;5087855;27;98796;-76
2023/12/05 01:36:27;;;;;;;52.47;22.30;;;;;;;3.42;55.71;100714.09;5086682;27;100165;-76
2023/12/05 01:38:54;;;;;;;53.65;22.88;;;;;;;3.63;54.91;100713.94;5081291;27;97013;-77
2023/12/05 01:41:20;;;;;;;51.60;22.20;;;;;;;3.95;54.17;100717.16;5078700;27;99273;-77
2023/12/05 01:43:49;;;;;;;52.67;23.65;;;;;;;3.78;54.32;100718.19;5083207;27;98997;-77
2023/12/05 01:46:16;;;;;;;51.03;22.95;;;;;;;3.54;54.70;100719.25;5082435;27;96840;-77
2023/12/05 01:48:44;;;;;;;56.42;24.25;;;;;;;3.39;55.31;100708.91;5086438;27;96738;-77
2023/12/05 01:51:11;;;;;;;51.33;22.23;;;;;;;3.74;54.74;100706.03;5093845;27;100596;-77
2023/12/05 01:53:40;;;;;;;57.25;24.63;;;;;;;3.82;54.07;100710.28;5081506;27;98872;-77
2023/12/05 01:56:09;;;;;;;53.58;23.25;;;;;;;3.87;53.51;100694.59;5089627;27;96730;-77
2023/12/05 01:58:37;;;;;;;51.97;22.25;;;;;;;3.52;54.51;100698.34;5087131;27;96865;-77
2023/12/05 02:01:06;;;;;;;49.65;23.63;;;;;;;3.70;53.88;100701.69;5085869;27;99449;-77
2023/12/05 02:03:32;;;;;;;52.55;22.92;;;;;;;3.50;54.41;100701.84;5086746;27;98815;-77
2023/12/05 02:05:59;;;;;;;50.50;23.85;;;;;;;3.67;54.51;100702.59;5084319;27;96717;-78
2023/12/05 02:08:27;;;;;;;50.22;23.98;;;;;;;3.69;54.47;100689.50;5087722;27;96832;-77
2023/12/05 02:10:54;;;;;;;56.60;23.13;;;;;;;3.66;54.59;100697.38;5087271;27;99216;-77
2023/12/05 02:13:20;;;;;;;55.08;24.08;;;;;;;3.57;54.26;100683.50;5078631;27;99294;-77
2023/12/05 02:15:54;;;;;;;46.20;22.60;;;;;;;3.49;55.06;100684.44;5086680;27;97734;-77
2023/12/05 02:18:29;;;;;;;54.88;23.38;;;;;;;3.66;54.83;100681.69;5084803;27;96981;-77
2023/12/05 02:21:00;;;;;;;48.95;21.80;;;;;;;3.91;53.56;100672.75;5086754;27;98625;-78
2023/12/05 02:23:47;;;;;;;56.00;23.75;;;;;;;3.78;54.36;100668.53;5079568;27;101191;-77
2023/12/05 02:26:23;;;;;;;49.40;22.80;;;;;;;3.61;54.58;100661.69;5090294;27;97778;-77
2023/12/05 02:28:51;;;;;;;50.13;23.13;;;;;;;3.56;54.78;100658.25;5084032;27;97083;-77
2023/12/05 02:31:17;;;;;;;51.03;22.95;;;;;;;3.52;54.90;100658.31;5082074;27;98115;-77
2023/12/05 02:33:44;;;;;;;52.13;22.98;;;;;;;3.73;54.12;100652.03;5084494;27;100515;-77
2023/12/05 02:36:20;;;;;;;51.97;22.85;;;;;;;3.58;54.24;100651.28;5077739;27;96788;-77
2023/12/05 02:38:56;;;;;;;50.83;23.35;;;;;;;3.41;54.93;100647.09;5080598;27;96973;-77
2023/12/05 02:41:29;;;;;;;55.95;24.88;;;;;;;3.53;54.86;100650.47;5086292;27;98054;-77
2023/12/05 02:44:02;;;;;;;52.78;23.20;;;;;;;3.28;55.14;100648.91;5087222;27;98817;-78
2023/12/05 02:46:29;;;;;;;57.35;24.05;;;;;;;3.34;55.47;100651.47;5089135;27;96881;-76
2023/12/05 02:48:57;;;;;;;53.58;24.13;;;;;;;3.31;55.30;100654.09;5081812;27;97447;-78
2023/12/05 02:51:26;;;;;;;56.47;23.98;;;;;;;3.26;56.43;100652.41;5088569;27;98858;-79
2023/12/05 02:53:52;;;;;;;51.05;23.98;;;;;;;3.29;55.40;100645.41;5087557;27;99046;-79
2023/12/05 02:56:19;;;;;;;54.80;23.30;;;;;;;3.32;55.53;100650.63;5084357;27;96715;-78
2023/12/05 02:58:45;;;;;;;50.95;23.38;;;;;;;3.38;55.06;100650.56;5077328;27;96765;-78
2023/12/05 03:01:13;;;;;;;48.85;22.63;;;;;;;3.10;55.76;100638.59;5081907;27;99015;-79
2023/12/05 03:03:40;;;;;;;51.28;22.48;;;;;;;3.38;55.66;100647.97;5081565;27;99227;-78
2023/12/05 03:06:07;;;;;;;53.53;22.80;;;;;;;3.01;56.41;100634.31;5089500;27;96848;-78
2023/12/05 03:08:33;;;;;;;54.30;23.35;;;;;;;2.97;56.86;100636.94;5079012;27;96827;-78
2023/12/05 03:11:01;;;;;;;50.42;21.80;;;;;;;3.11;56.55;100643.81;5080534;27;97813;-77
2023/12/05 03:13:28;;;;;;;48.88;23.10;;;;;;;2.91;56.97;100647.41;5083060;27;101526;-76
2023/12/05 03:15:54;;;;;;;54.03;23.15;;;;;;;2.85;57.25;100637.00;5081376;27;96855;-76
2023/12/05 03:18:22;;;;;;;54.38;24.20;;;;;;;3.14;56.60;100638.56;5086414;27;96704;-76
2023/12/05 03:20:48;;;;;;;48.05;22.60;;;;;;;3.18;56.12;100637.66;5080472;27;101302;-76
2023/12/05 03:23:17;;;;;;;54.20;23.33;;;;;;;3.12;56.43;100629.88;5082370;27;98874;-77
2023/12/05 03:25:43;;;;;;;54.45;23.63;;;;;;;3.10;56.76;100638.59;5080953;27;96909;-76
2023/12/05 03:28:10;;;;;;;50.65;21.98;;;;;;;3.29;56.15;100640.19;5089175;27;96751;-78
2023/12/05 03:30:36;;;;;;;56.70;23.15;;;;;;;3.37;55.92;100637.50;5076621;27;98795;-77
2023/12/05 03:33:02;;;;;;;56.00;23.70;;;;;;;3.05;57.00;100640.38;5083515;27;99221;-77
2023/12/05 03:35:30;;;;;;;50.10;22.73;;;;;;;3.06;57.11;100642.09;5078439;27;96862;-78
2023/12/05 03:37:57;;;;;;;49.70;22.77;;;;;;;2.81;57.47;100633.56;5084351;27;97500;-78
2023/12/05 03:40:23;;;;;;;47.60;22.08;;;;;;;3.25;56.81;100637.63;5080468;27;99529;-79
2023/12/05 03:42:50;;;;;;;70.18;24.40;;;;;;;3.12;56.59;100642.06;5084301;27;98761;-78
2023/12/05 03:45:16;;;;;;;56.38;23.27;;;;;;;3.03;56.88;100637.75;5085494;27;96988;-78
2023/12/05 03:47:42;;;;;;;45.95;22.33;;;;;;;3.12;56.51;100640.31;5084407;27;96922;-78
2023/12/05 03:50:09;;;;;;;53.92;23.30;;;;;;;3.22;57.02;100646.31;5083089;27;99774;-78
2023/12/05 03:52:37;;;;;;;54.97;23.27;;;;;;;3.26;56.44;100640.22;5084272;27;98782;-78
2023/12/05 03:55:04;;;;;;;53.25;23.05;;;;;;;3.31;56.39;100653.22;5086635;27;96744;-79
2023/12/05 03:57:30;;;;;;;52.35;23.67;;;;;;;3.29;56.46;100652.38;5079496;27;97584;-79
2023/12/05 03:59:56;;;;;;;50.67;22.70;;;;;;;3.54;55.81;100652.16;5087503;27;98286;-79
2023/12/05 04:02:23;;;;;;;53.50;24.10;;;;;;;3.56;56.18;100644.31;5084112;27;101283;-79
2023/12/05 04:04:49;;;;;;;52.20;23.63;;;;;;;3.25;56.55;100648.06;5082460;27;97498;-79
2023/12/05 04:07:15;;;;;;;50.15;24.20;;;;;;;3.22;56.94;100643.72;5085028;27;98579;-79
2023/12/05 04:09:46;;;;;;;51.88;23.27;;;;;;;3.12;57.18;100648.16;5079764;27;97667;-78
2023/12/05 04:12:12;;;;;;;51.17;21.73;;;;;;;2.91;57.29;100644.81;5088656;27;98084;-78
2023/12/05 04:14:39;;;;;;;52.15;23.98;;;;;;;3.12;57.48;100642.94;5085351;27;96766;-79
2023/12/05 04:17:06;;;;;;;52.55;22.27;;;;;;;3.13;56.93;100644.66;5088245;27;96808;-78
2023/12/05 04:19:32;;;;;;;56.40;23.80;;;;;;;3.08;57.65;100637.75;5086031;27;97477;-78
2023/12/05 04:21:59;;;;;;;55.47;24.48;;;;;;;3.35;56.41;100631.47;5095037;27;99096;-78
2023/12/05 04:24:25;;;;;;;55.13;24.13;;;;;;;3.11;57.60;100635.09;5084580;27;97735;-77
2023/12/05 04:26:53;;;;;;;48.17;21.05;;;;;;;3.11;57.72;100629.88;5085663;27;96702;-78
2023/12/05 04:29:20;;;;;;;54.15;23.92;;;;;;;3.13;57.46;100639.44;5080146;27;99220;-78
2023/12/05 04:31:46;;;;;;;48.17;22.75;;;;;;;3.40;57.05;100641.00;5085092;27;101609;-78
2023/12/05 04:34:13;;;;;;;52.45;22.45;;;;;;;3.39;56.58;100643.59;5090348;27;96849;-78
2023/12/05 04:36:39;;;;;;;48.75;22.42;;;;;;;3.18;57.42;100647.25;5089759;27;97283;-78
2023/12/05 04:39:07;;;;;;;53.58;23.45;;;;;;;3.40;56.78;100632.28;5086517;27;99278;-79
2023/12/05 04:41:33;;;;;;;48.90;23.55;;;;;;;3.30;56.92;100641.06;5089725;27;99021;-79
2023/12/05 04:44:01;;;;;;;53.67;21.73;;;;;;;3.16;57.74;100638.53;5078863;27;96799;-79
2023/12/05 04:46:28;;;;;;;53.55;23.27;;;;;;;3.14;57.95;100642.94;5090457;27;96930;-78
2023/12/05 04:48:54;;;;;;;47.85;23.17;;;;;;;3.26;57.75;100635.00;5088164;27;97916;-79
2023/12/05 04:51:20;;;;;;;56.97;23.80;;;;;;;3.60;56.72;100635.59;5085910;27;97651;-79
2023/12/05 04:53:47;;;;;;;50.80;23.52;;;;;;;3.55;56.60;100635.63;5083717;27;96711;-78
2023/12/05 04:56:13;;;;;;;49.47;23.13;;;;;;;3.47;56.67;100634.84;5088744;27;97713;-79
2023/12/05 04:58:40;;;;;;;48.95;22.75;;;;;;;3.50;56.94;100629.56;5082802;27;98915;-79
2023/12/05 05:01:08;;;;;;;48.05;22.35;;;;;;;3.63;55.75;100626.84;5081325;27;100625;-78
2023/12/05 05:03:34;;;;;;;48.17;23.13;;;;;;;3.51;56.57;100618.25;5084850;27;97213;-78
2023/12/05 05:06:01;;;;;;;51.15;23.08;;;;;;;3.80;55.77;100622.34;5086870;27;96824;-78
2023/12/05 05:08:27;;;;;;;48.95;22.25;;;;;;;3.58;55.79;100617.31;5085264;27;99216;-78
2023/12/05 05:10:54;;;;;;;54.13;23.98;;;;;;;3.85;55.51;100621.41;5080248;27;99550;-79
2023/12/05 05:13:20;;;;;;;49.35;22.33;;;;;;;3.83;55.61;100623.16;5081811;27;96811;-79
2023/12/05 05:15:46;;;;;;;52.67;24.45;;;;;;;3.77;55.96;100617.13;5085746;27;97366;-79
2023/12/05 05:18:14;;;;;;;48.28;22.65;;;;;;;3.49;56.01;100614.78;5076681;27;99011;-78
2023/12/05 05:20:41;;;;;;;49.58;22.10;;;;;;;3.40;56.70;100619.22;5081142;27;98976;-78
2023/12/05 05:23:09;;;;;;;50.40;23.00;;;;;;;3.56;56.64;100616.44;5090035;27;97781;-78
2023/12/05 05:25:37;;;;;;;48.20;23.05;;;;;;;3.65;56.20;100614.63;5093374;27;96755;-79
2023/12/05 05:28:04;;;;;;;50.95;24.30;;;;;;;3.77;55.48;100617.13;5080734;27;101468;-79
2023/12/05 05:30:30;;;;;;;52.90;23.50;;;;;;;3.70;55.75;100623.28;5089845;27;99109;-79
2023/12/05 05:32:57;;;;;;;45.88;21.83;;;;;;;3.68;55.60;100617.19;5084121;27;97169;-76
2023/12/05 05:35:24;;;;;;;52.20;22.58;;;;;;;3.82;56.21;100618.81;5082874;27;96824;-77
2023/12/05 05:37:51;;;;;;;48.35;22.15;;;;;;;3.87;55.49;100619.63;5077383;27;99049;-77
2023/12/05 05:40:18;;;;;;;49.58;23.10;;;;;;;3.77;55.16;100615.38;5078803;27;99710;-78
2023/12/05 05:42:44;;;;;;;53.88;23.88;;;;;;;3.77;55.76;100623.22;5077465;27;97038;-78
2023/12/05 05:45:11;;;;;;;49.67;23.38;;;;;;;3.75;55.83;100624.09;5088700;27;97410;-78
2023/12/05 05:47:38;;;;;;;51.55;23.70;;;;;;;3.69;56.45;100634.63;5084542;27;99268;-77
2023/12/05 05:50:05;;;;;;;51.67;22.80;;;;;;;3.53;57.26;100634.78;5086152;27;100939;-78
2023/12/05 05:52:33;;;;;;;49.10;23.90;;;;;;;3.80;56.97;100638.91;5076756;27;96825;-78
2023/12/05 05:55:00;;;;;;;48.83;23.15;;;;;;;3.98;55.92;100637.84;5084516;27;96888;-77
2023/12/05 05:57:26;;;;;;;53.30;24.42;;;;;;;3.93;56.21;100640.50;5079679;27;99371;-78
2023/12/05 05:59:53;;;;;;;52.80;23.23;;;;;;;3.79;56.42;100636.28;5077399;27;101505;-78
2023/12/05 06:02:19;;;;;;;51.05;23.15;;;;;;;4.00;56.18;100641.31;5084136;27;98617;-78
2023/12/05 06:04:46;;;;;;;57.15;25.65;;;;;;;3.94;56.37;100642.22;5079652;27;96874;-78
2023/12/05 06:07:12;;;;;;;54.55;24.20;;;;;;;4.26;55.15;100639.28;5085927;27;98859;-77
2023/12/05 06:09:40;;;;;;;49.05;23.30;;;;;;;4.26;54.91;100633.16;5081311;27;99744;-76
2023/12/05 06:12:08;;;;;;;47.53;22.27;;;;;;;4.12;55.21;100646.41;5083817;27;96876;-76
2023/12/05 06:14:35;;;;;;;49.13;23.92;;;;;;;4.46;54.60;100648.63;5077793;27;96769;-76
2023/12/05 06:17:01;;;;;;;47.72;22.08;;;;;;;4.16;55.31;100642.00;5094009;27;99046;-77
2023/12/05 06:19:27;;;;;;;49.13;21.90;;;;;;;3.98;55.62;100646.53;5090257;27;97607;-78
2023/12/05 06:21:54;;;;;;;46.47;22.38;;;;;;;4.25;55.10;100640.16;5078697;27;96774;-77
2023/12/05 06:24:20;;;;;;;50.80;22.50;;;;;;;4.10;54.72;100632.47;5074504;27;96855;-78
2023/12/05 06:26:48;;;;;;;46.95;22.02;;;;;;;4.10;55.48;100642.94;5085746;27;98443;-77
2023/12/05 06:29:14;;;;;;;49.58;22.42;;;;;;;4.00;55.40;100649.97;5087665;27;97709;-78
2023/12/05 06:31:40;;;;;;;49.17;22.10;;;;;;;4.25;54.89;100637.53;5083778;27;96803;-78
2023/12/05 06:34:07;;;;;;;48.75;21.42;;;;;;;4.01;55.04;100643.00;5091401;27;101477;-78
2023/12/05 06:36:33;;;;;;;45.22;22.73;;;;;;;4.26;54.84;100628.81;5084808;27;99520;-78
2023/12/05 06:39:00;;;;;;;47.67;22.50;;;;;;;4.37;54.11;100640.00;5089306;27;99253;-77
2023/12/05 06:41:26;;;;;;;43.10;21.80;;;;;;;4.40;53.84;100636.47;5088139;27;98343;-77
2023/12/05 06:43:54;;;;;;;49.08;21.55;;;;;;;4.29;54.83;100647.06;5080994;27;97794;-77
2023/12/05 06:46:20;;;;;;;49.05;22.25;;;;;;;4.18;54.68;100635.00;5072201;27;98908;-76
2023/12/05 06:48:48;;;;;;;49.17;21.52;;;;;;;3.95;54.81;100637.84;5074496;27;100044;-78
2023/12/05 06:51:18;;;;;;;43.83;20.98;;;;;;;4.18;55.13;100651.56;5075874;27;97565;-76
2023/12/05 06:53:46;;;;;;;53.13;23.13;;;;;;;4.38;54.25;100639.13;5078069;27;100135;-77
2023/12/05 06:56:13;;;;;;;45.13;21.65;;;;;;;4.24;54.13;100633.19;5078149;27;101002;-76
2023/12/05 06:58:40;;;;;;;50.83;22.35;;;;;;;4.42;53.97;100634.72;5088492;27;98991;-77
2023/12/05 07:01:11;;;;;;;44.50;21.85;;;;;;;4.76;52.89;100629.91;5083428;27;96676;-78
2023/12/05 07:03:37;;;;;;;57.70;24.15;;;;;;;4.44;53.74;100629.47;5089339;27;96770;-77
2023/12/05 07:06:05;;;;;;;49.08;22.88;;;;;;;4.71;53.35;100621.25;5077694;27;96887;-76
2023/12/05 07:08:31;;;;;;;45.30;21.55;;;;;;;4.39;54.22;100632.16;5089364;27;98030;-78
2023/12/05 07:10:58;;;;;;;47.42;22.60;;;;;;;4.02;55.74;100623.84;5090013;27;96715;-77
2023/12/05 07:13:24;;;;;;;46.50;22.27;;;;;;;4.27;54.65;100620.06;5088683;27;96775;-78
2023/12/05 07:15:50;;;;;;;52.13;22.25;;;;;;;4.36;54.41;100624.31;5079429;27;98982;-78
2023/12/05 07:18:19;;;;;;;47.75;22.17;;;;;;;4.17;54.79;100628.91;5074062;27;99688;-78
2023/12/05 07:20:45;;;;;;;48.75;21.83;;;;;;;3.99;55.26;100632.59;5073402;27;99223;-78
2023/12/05 07:23:11;;;;;;;48.03;22.02;;;;;;;3.96;55.16;100631.75;5074066;27;98131;-77
2023/12/05 07:25:38;;;;;;;44.00;21.00;;;;;;;3.91;55.91;100636.16;5086771;27;100094;-77
2023/12/05 07:28:04;;;;;;;47.97;23.00;;;;;;;3.94;55.80;100628.25;5081416;27;99474;-78
2023/12/05 07:30:31;;;;;;;43.83;22.17;;;;;;;4.24;55.09;100625.34;5077642;27;96783;-77
2023/12/05 07:32:57;;;;;;;49.10;23.23;;;;;;;4.23;54.94;100625.34;5081546;27;96888;-77
2023/12/05 07:35:25;;;;;;;55.85;23.75;;;;;;;4.07;54.52;100619.41;5083971;27;97554;-79
2023/12/05 07:37:51;;;;;;;49.42;22.50;;;;;;;4.14;54.87;100628.06;5086604;27;99631;-79
2023/12/05 07:40:18;;;;;;;50.03;22.90;;;;;;;4.08;55.26;100628.13;5079037;27;96791;-77
2023/12/05 07:42:45;;;;;;;46.25;22.40;;;;;;;3.95;55.94;100637.84;5088460;27;97456;-77
2023/12/05 07:45:11;;;;;;;50.85;23.40;;;;;;;3.90;55.15;100640.53;5080076;27;99263;-76
2023/12/05 07:47:39;;;;;;;52.38;23.05;;;;;;;3.80;56.48;100638.03;5080941;27;101503;-77
2023/12/05 07:50:06;;;;;;;48.65;22.25;;;;;;;3.83;56.61;100643.19;5082342;27;97441;-77
2023/12/05 07:52:34;;;;;;;47.65;22.02;;;;;;;3.99;56.17;100644.81;5086676;27;96947;-77
2023/12/05 07:55:03;;;;;;;47.22;22.95;;;;;;;3.95;55.76;100640.47;5090850;27;102741;-77
2023/12/05 07:57:29;;;;;;;49.53;22.42;;;;;;;3.81;56.09;100637.97;5080145;27;98920;-77
2023/12/05 07:59:56;;;;;;;50.60;23.33;;;;;;;4.16;55.31;100644.59;5091213;27;96768;-77
2023/12/05 08:02:22;;;;;;;46.15;22.02;;;;;;;3.97;55.56;100636.97;5080513;27;97581;-82
2023/12/05 08:04:49;;;;;;;51.83;22.05;;;;;;;4.03;55.38;100643.88;5087132;27;99131;-78
2023/12/05 08:07:17;;;;;;;45.92;22.30;;;;;;;4.13;55.33;100642.91;5082632;27;99097;-73
2023/12/05 08:09:44;;;;;;;44.83;22.08;;;;;;;4.30;54.96;100635.72;5081161;27;96663;-72
2023/12/05 08:12:11;;;;;;;50.78;23.85;;;;;;;4.21;54.49;100642.78;5081067;27;96811;-72
2023/12/05 08:14:37;;;;;;;45.00;21.65;;;;;;;4.32;54.59;100636.59;5080084;27;99009;-72
2023/12/05 08:17:04;;;;;;;52.50;23.23;;;;;;;4.48;54.68;100639.00;5075452;27;100384;-72
2023/12/05 08:19:31;;;;;;;48.33;23.08;;;;;;;4.35;54.45;100641.75;5074771;27;96743;-72
2023/12/05 08:21:57;;;;;;;45.78;22.20;;;;;;;4.39;54.88;100640.00;5083286;27;97034;-72
2023/12/05 08:24:23;;;;;;;47.33;21.90;;;;;;;4.33;54.88;100643.53;5081675;27;102069;-72
2023/12/05 08:26:51;;;;;;;50.67;23.70;;;;;;;4.40;54.79;100632.09;5084847;27;97687;-72
2023/12/05 08:29:18;;;;;;;49.83;22.67;;;;;;;4.06;54.90;100630.78;5080419;27;98383;-73
2023/12/05 08:31:44;;;;;;;45.42;22.45;;;;;;;4.39;54.44;100635.63;5073800;27;97397;-73
2023/12/05 08:34:12;;;;;;;50.65;24.15;;;;;;;4.33;54.93;100645.31;5076528;27;101950;-73
2023/12/05 08:36:43;;;;;;;52.05;23.33;;;;;;;4.41;54.62;100644.31;5079411;27;98911;-73
2023/12/05 08:39:09;;;;;;;48.47;22.75;;;;;;;4.30;54.97;100646.19;5075154;27;99657;-73
2023/12/05 08:41:35;;;;;;;49.05;23.92;;;;;;;4.32;55.16;100644.44;5077604;27;98464;-73
2023/12/05 08:44:03;;;;;;;47.80;23.52;;;;;;;4.32;55.05;100647.03;5078239;27;102178;-74
2023/12/05 08:46:30;;;;;;;47.53;24.20;;;;;;;4.37;54.95;100649.59;5074588;27;99110;-73
2023/12/05 08:48:56;;;;;;;51.75;23.73;;;;;;;4.45;54.70;100649.50;5081854;27;96935;-72
2023/12/05 08:51:22;;;;;;;50.97;22.85;;;;;;;4.51;54.35;100647.69;5079666;27;97066;-73
2023/12/05 08:53:49;;;;;;;56.63;25.40;;;;;;;4.46;54.97;100659.09;5085467;27;99210;-73
2023/12/05 08:56:15;;;;;;;53.53;23.65;;;;;;;4.55;54.43;100651.13;5082131;27;99170;-73
2023/12/05 08:58:42;;;;;;;48.13;23.48;;;;;;;4.32;54.80;100654.91;5073536;27;97021;-72
2023/12/05 09:01:11;;;;;;;53.10;23.83;;;;;;;4.43;54.85;100653.88;5085761;27;97169;-73
2023/12/05 09:03:38;;;;;;;45.50;21.85;;;;;;;4.52;54.54;100652.03;5075477;27;100762;-73
2023/12/05 09:06:05;;;;;;;51.67;23.88;;;;;;;4.43;55.29;100651.28;5078697;27;97576;-73
2023/12/05 09:08:33;;;;;;;46.80;22.95;;;;;;;4.78;54.10;100652.56;5081085;27;99316;-73
2023/12/05 09:11:00;;;;;;;51.45;24.55;;;;;;;5.29;52.90;100657.06;5079428;27;97347;-73
2023/12/05 09:13:26;;;;;;;46.15;23.52;;;;;;;5.05;52.47;100648.72;5078998;27;99065;-73
2023/12/05 09:15:53;;;;;;;49.80;24.13;;;;;;;5.30;52.58;100653.56;5082358;27;98326;-73
2023/12/05 09:18:22;;;;;;;47.00;22.73;;;;;;;5.18;52.54;100649.38;5081624;27;98155;-72
2023/12/05 09:20:48;;;;;;;45.38;22.88;;;;;;;5.18;52.88;100642.41;5078853;27;96788;-72
2023/12/05 09:23:15;;;;;;;51.05;24.13;;;;;;;5.28;52.74;100647.47;5079104;27;98956;-73
2023/12/05 09:25:42;;;;;;;45.15;22.65;;;;;;;5.39;52.27;100642.91;5084672;27;99042;-73
2023/12/05 09:28:08;;;;;;;51.88;23.08;;;;;;;5.39;52.14;100650.78;5081435;27;97387;-73
2023/12/05 09:30:34;;;;;;;48.30;23.42;;;;;;;5.05;52.76;100646.09;5086589;27;96777;-73
2023/12/05 09:33:01;;;;;;;51.17;23.55;;;;;;;5.48;52.04;100661.13;5081987;27;98951;-73
2023/12/05 09:35:29;;;;;;;51.28;23.48;;;;;;;5.51;52.10;100648.00;5083703;27;98851;-73
2023/12/05 09:37:56;;;;;;;51.60;23.55;;;;;;;5.67;51.80;100645.97;5084633;27;97441;-73
2023/12/05 09:40:22;;;;;;;46.38;22.75;;;;;;;5.77;51.25;100651.03;5086186;27;97533;-73
2023/12/05 09:42:49;;;;;;;49.38;23.08;;;;;;;5.73;50.64;100651.97;5083178;27;98520;-74
2023/12/05 09:45:17;;;;;;;43.55;20.80;;;;;;;5.75;51.19;100646.69;5085487;27;100285;-73
2023/12/05 09:47:46;;;;;;;53.10;22.77;;;;;;;5.13;52.14;100638.09;5083361;27;97644;-73
2023/12/05 09:50:12;;;;;;;43.17;21.63;;;;;;;4.91;53.61;100634.94;5079583;27;98405;-73
2023/12/05 09:52:41;;;;;;;47.05;23.20;;;;;;;5.26;52.91;100636.16;5086387;27;98910;-73
2023/12/05 09:55:08;;;;;;;52.38;23.13;;;;;;;5.53;52.16;100630.47;5082314;27;98993;-73
2023/12/05 09:57:37;;;;;;;45.70;22.80;;;;;;;5.74;51.12;100645.84;5081497;27;100603;-73
2023/12/05 10:00:05;;;;;;;48.20;23.92;;;;;;;5.55;51.13;100634.81;5079225;27;97040;-73
2023/12/05 10:02:33;;;;;;;48.67;23.55;;;;;;;5.39;52.28;100629.81;5082263;27;98978;-73
2023/12/05 10:05:04;;;;;;;48.97;22.65;;;;;;;5.52;52.02;100628.72;5079423;27;98939;-73
2023/12/05 10:07:32;;;;;;;47.67;21.90;;;;;;;5.49;51.52;100631.41;5086971;27;97791;-73
2023/12/05 10:10:02;;;;;;;45.92;22.25;;;;;;;5.35;52.58;100634.25;5076381;27;96866;-73
2023/12/05 10:12:29;;;;;;;45.83;21.08;;;;;;;5.29;52.56;100631.75;5079243;27;98954;-73
2023/12/05 10:14:55;;;;;;;44.13;22.38;;;;;;;4.94;53.51;100629.63;5083455;27;98837;-74
2023/12/05 10:17:22;;;;;;;46.35;22.65;;;;;;;5.38;53.08;100630.75;5084812;27;98084;-73
2023/12/05 10:19:48;;;;;;;46.92;21.95;;;;;;;5.28;52.63;100624.75;5078546;27;96808;-73
2023/12/05 10:22:15;;;;;;;47.83;21.98;;;;;;;5.36;52.91;100622.03;5080172;27;99263;-74
2023/12/05 10:24:46;;;;;;;46.28;22.38;;;;;;;5.20;52.69;100614.41;5088919;27;99141;-72
2023/12/05 10:27:16;;;;;;;45.35;22.55;;;;;;;5.21;53.48;100610.03;5077717;27;96694;-73
2023/12/05 10:29:43;;;;;;;49.88;21.95;;;;;;;5.40;52.66;100611.47;5087289;27;97372;-72
2023/12/05 10:32:11;;;;;;;47.55;21.20;;;;;;;5.39;52.56;100608.84;5081417;27;98854;-73
2023/12/05 10:34:48;;;;;;;50.83;21.90;;;;;;;5.49;53.18;100605.22;5084132;27;98765;-73
2023/12/05 10:37:16;;;;;;;40.75;20.45;;;;;;;5.36;52.97;100607.19;5085587;27;96821;-73
2023/12/05 10:39:42;;;;;;;44.55;21.55;;;;;;;5.03;53.82;100598.09;5077706;27;96910;-73
2023/12/05 10:42:09;;;;;;;47.70;21.67;;;;;;;4.86;54.17;100599.25;5083587;27;100888;-74
2023/12/05 10:44:39;;;;;;;41.47;19.67;;;;;;;4.83;54.62;100602.75;5083026;27;98063;-74
2023/12/05 10:47:06;;;;;;;43.15;20.60;;;;;;;4.72;54.29;100591.59;5080284;27;96795;-74
2023/12/05 10:49:34;;;;;;;42.33;20.58;;;;;;;4.92;54.34;100589.53;5081222;27;96849;-74
2023/12/05 10:52:02;;;;;;;42.75;20.38;;;;;;;5.17;53.91;100584.78;5081677;27;98984;-74
2023/12/05 10:54:28;;;;;;;43.83;21.10;;;;;;;5.20;53.95;100577.72;5077965;27;99649;-74
2023/12/05 10:56:58;;;;;;;41.92;21.48;;;;;;;5.36;53.08;100590.59;5082336;27;98008;-73
2023/12/05 10:59:27;;;;;;;44.88;20.95;;;;;;;5.60;52.78;100584.91;5083640;27;101004;-73
2023/12/05 11:01:56;;;;;;;43.22;21.48;;;;;;;5.52;52.61;100584.19;5082011;27;98578;-73
2023/12/05 11:04:24;;;;;;;41.17;20.95;;;;;;;5.89;51.40;100582.66;5082695;27;98057;-74
2023/12/05 11:06:51;;;;;;;42.40;20.98;;;;;;;5.92;51.36;100574.72;5084899;27;96890;-72
2023/12/05 11:09:19;;;;;;;42.17;21.75;;;;;;;5.67;51.60;100573.44;5081044;27;97101;-74
2023/12/05 11:11:47;;;;;;;41.20;21.02;;;;;;;5.77;51.54;100582.00;5085429;27;97689;-73
2023/12/05 11:14:15;;;;;;;42.28;20.75;;;;;;;5.66;51.44;100584.81;5075432;27;98766;-73
2023/12/05 11:16:49;;;;;;;39.78;20.23;;;;;;;5.64;51.92;100581.38;5078837;27;97338;-74